Time;durP1;ratioP1;P1;durP2;ratioP2;P2;SDS_P1;SDS_P2;PMS_P1;PMS_P2;Temp;Humidity;BMP_temperature;BMP_pressure;BME280_temperature;BME280_humidity;BME280_pressure;Samples;Min_cycle;Max_cycle;Signal;HPM_P1;HPM_P2
2021/08/18 00:01:48;;;;;;;2.60;2.40;;;;;;;;;;5114237;28;20020;-61
2021/08/18 00:04:13;;;;;;;2.60;2.40;;;;;;;;;;5114043;28;20116;-62
2021/08/18 00:06:39;;;;;;;5.97;2.90;;;;;;;;;;5114176;28;20019;-62
2021/08/18 00:09:05;;;;;;;3.00;2.80;;;;;;;;;;5114114;28;20046;-63
2021/08/18 00:11:30;;;;;;;4.75;3.30;;;;;;;;;;5114398;28;20497;-62
2021/08/18 00:13:56;;;;;;;4.82;3.38;;;;;;;;;;5114103;28;20040;-61
2021/08/18 00:16:23;;;;;;;4.25;2.47;;;;;;;;;;5095960;28;20039;-61
2021/08/18 00:18:52;;;;;;;2.88;2.67;;;;;;;;;;5113650;28;20531;-62
2021/08/18 00:21:18;;;;;;;3.90;2.65;;;;;;;;;;5113844;28;20047;-62
2021/08/18 00:23:45;;;;;;;6.80;4.43;;;;;;;;;;5095829;28;20038;-61
2021/08/18 00:26:10;;;;;;;8.82;4.32;;;;;;;;;;5095741;28;20484;-61
2021/08/18 00:28:36;;;;;;;20.67;8.10;;;;;;;;;;5113616;28;20130;-61
2021/08/18 00:31:01;;;;;;;12.80;5.20;;;;;;;;;;5113815;28;20354;-62
2021/08/18 00:33:27;;;;;;;25.83;8.43;;;;;;;;;;5113904;28;20543;-62
2021/08/18 00:35:52;;;;;;;54.20;15.73;;;;;;;;;;5095721;28;20039;-62
2021/08/18 00:38:18;;;;;;;5.90;4.20;;;;;;;;;;5113683;28;20484;-62
2021/08/18 00:40:43;;;;;;;15.13;6.47;;;;;;;;;;5113667;28;20046;-62
2021/08/18 00:43:09;;;;;;;9.48;4.18;;;;;;;;;;5113573;28;20039;-62
2021/08/18 00:45:34;;;;;;;6.55;3.67;;;;;;;;;;5113739;28;20224;-62
2021/08/18 00:47:59;;;;;;;3.45;2.92;;;;;;;;;;5095950;28;20063;-61
2021/08/18 00:50:27;;;;;;;5.20;4.20;;;;;;;;;;5118148;28;20200;-61
2021/08/18 00:52:55;;;;;;;9.05;4.70;;;;;;;;;;5118021;28;20121;-61
2021/08/18 00:55:22;;;;;;;14.82;9.30;;;;;;;;;;5117845;28;20035;-62
2021/08/18 00:57:47;;;;;;;6.65;4.60;;;;;;;;;;5117708;28;20035;-61
2021/08/18 01:00:17;;;;;;;15.70;8.48;;;;;;;;;;5117972;28;20485;-61
2021/08/18 01:02:45;;;;;;;7.65;5.57;;;;;;;;;;5117989;28;20047;-62
2021/08/18 01:05:12;;;;;;;3.33;3.03;;;;;;;;;;5117732;28;20105;-62
2021/08/18 01:07:38;;;;;;;3.47;3.17;;;;;;;;;;5117685;28;20081;-68
2021/08/18 01:10:04;;;;;;;3.95;2.92;;;;;;;;;;5117304;28;20381;-67
2021/08/18 01:12:30;;;;;;;4.32;2.70;;;;;;;;;;5117458;28;20061;-67
2021/08/18 01:14:55;;;;;;;3.30;3.00;;;;;;;;;;5117520;28;20040;-67
2021/08/18 01:17:21;;;;;;;3.65;3.25;;;;;;;;;;5117342;28;20052;-67
2021/08/18 01:19:46;;;;;;;3.47;3.17;;;;;;;;;;5117148;28;20044;-67
2021/08/18 01:22:12;;;;;;;4.20;2.88;;;;;;;;;;5116836;28;20043;-66
2021/08/18 01:24:37;;;;;;;4.35;3.10;;;;;;;;;;5117430;28;20122;-65
2021/08/18 01:27:03;;;;;;;3.25;2.95;;;;;;;;;;5116742;28;20100;-66
2021/08/18 01:29:28;;;;;;;4.53;4.07;;;;;;;;;;5117590;28;20040;-66
2021/08/18 01:31:56;;;;;;;5.15;3.72;;;;;;;;;;5117012;28;20048;-67
2021/08/18 01:34:21;;;;;;;3.17;2.83;;;;;;;;;;5117133;28;20077;-67
2021/08/18 01:36:47;;;;;;;4.97;3.15;;;;;;;;;;5117026;28;20381;-67
2021/08/18 01:39:12;;;;;;;4.18;3.13;;;;;;;;;;5117280;28;20040;-68
2021/08/18 01:41:38;;;;;;;4.00;3.15;;;;;;;;;;5116889;28;20035;-64
2021/08/18 01:44:03;;;;;;;3.28;2.83;;;;;;;;;;5116826;28;20032;-65
2021/08/18 01:46:29;;;;;;;7.78;4.68;;;;;;;;;;5098892;28;20127;-64
2021/08/18 01:48:54;;;;;;;4.07;3.03;;;;;;;;;;5117017;28;20063;-65
2021/08/18 01:51:21;;;;;;;6.45;3.55;;;;;;;;;;5098520;28;20466;-67
2021/08/18 01:53:47;;;;;;;6.00;3.78;;;;;;;;;;5116705;28;20440;-68
2021/08/18 01:56:13;;;;;;;4.07;3.33;;;;;;;;;;5098545;28;20048;-66
2021/08/18 01:58:39;;;;;;;4.60;3.17;;;;;;;;;;5116257;28;20039;-67
2021/08/18 02:01:06;;;;;;;6.32;4.07;;;;;;;;;;5116482;28;20035;-65
2021/08/18 02:03:32;;;;;;;4.88;3.63;;;;;;;;;;5116553;28;20119;-67
2021/08/18 02:05:57;;;;;;;4.55;3.00;;;;;;;;;;5098237;28;20466;-67
2021/08/18 02:08:23;;;;;;;22.33;7.43;;;;;;;;;;5116000;28;20034;-66
2021/08/18 02:10:48;;;;;;;17.45;7.63;;;;;;;;;;5116404;28;20048;-66
2021/08/18 02:13:15;;;;;;;6.78;4.53;;;;;;;;;;5116316;28;20478;-66
2021/08/18 02:15:41;;;;;;;5.03;3.60;;;;;;;;;;5097975;28;20043;-66
2021/08/18 02:18:07;;;;;;;4.68;3.00;;;;;;;;;;5116413;28;20044;-66
2021/08/18 02:20:34;;;;;;;3.80;3.05;;;;;;;;;;5116331;28;20028;-65
2021/08/18 02:23:00;;;;;;;3.50;3.20;;;;;;;;;;5116347;28;20028;-65
2021/08/18 02:25:26;;;;;;;3.25;2.92;;;;;;;;;;5116130;28;20040;-66
2021/08/18 02:27:52;;;;;;;4.93;3.17;;;;;;;;;;5115645;28;20059;-66
2021/08/18 02:30:19;;;;;;;3.42;3.00;;;;;;;;;;5115995;28;20381;-66
2021/08/18 02:32:45;;;;;;;3.33;3.03;;;;;;;;;;5116231;28;20470;-62
2021/08/18 02:35:11;;;;;;;3.30;3.00;;;;;;;;;;5116317;28;20114;-62
2021/08/18 02:37:37;;;;;;;2.75;2.55;;;;;;;;;;5116010;28;20102;-62
2021/08/18 02:40:03;;;;;;;3.15;2.88;;;;;;;;;;5097625;28;20043;-61
2021/08/18 02:42:29;;;;;;;3.42;3.00;;;;;;;;;;5115758;28;20077;-62
2021/08/18 02:44:54;;;;;;;4.45;2.78;;;;;;;;;;5116085;28;20401;-61
2021/08/18 02:47:19;;;;;;;2.92;2.67;;;;;;;;;;5115791;28;20051;-61
2021/08/18 02:49:45;;;;;;;6.80;3.25;;;;;;;;;;5080524;28;20032;-61
2021/08/18 02:52:10;;;;;;;3.88;2.80;;;;;;;;;;5115578;28;20110;-61
2021/08/18 02:54:36;;;;;;;3.20;2.90;;;;;;;;;;5115727;28;20051;-62
2021/08/18 02:57:02;;;;;;;4.53;2.65;;;;;;;;;;5115427;28;20027;-62
2021/08/18 02:59:27;;;;;;;4.00;3.00;;;;;;;;;;5097367;28;20039;-62
2021/08/18 03:01:53;;;;;;;3.00;2.78;;;;;;;;;;5115357;28;20081;-62
2021/08/18 03:04:18;;;;;;;4.72;2.67;;;;;;;;;;5115464;28;20126;-61
2021/08/18 03:06:44;;;;;;;4.45;2.78;;;;;;;;;;5115265;28;20439;-62
2021/08/18 03:09:09;;;;;;;3.15;2.72;;;;;;;;;;5115482;28;20036;-61
2021/08/18 03:11:34;;;;;;;3.55;3.08;;;;;;;;;;5096047;28;20036;-61
2021/08/18 03:14:00;;;;;;;3.80;3.00;;;;;;;;;;5115531;28;20117;-61
2021/08/18 03:16:26;;;;;;;3.47;2.67;;;;;;;;;;5115220;28;20033;-61
2021/08/18 03:18:51;;;;;;;4.63;2.92;;;;;;;;;;5115144;28;20040;-62
2021/08/18 03:21:17;;;;;;;3.15;2.85;;;;;;;;;;5114604;28;20067;-62
2021/08/18 03:23:42;;;;;;;4.82;2.85;;;;;;;;;;5114940;28;20030;-62
2021/08/18 03:26:08;;;;;;;5.63;2.97;;;;;;;;;;5115074;28;20085;-62
2021/08/18 03:28:33;;;;;;;6.70;3.13;;;;;;;;;;5114594;28;20047;-62
2021/08/18 03:30:58;;;;;;;4.75;2.85;;;;;;;;;;5096749;28;20104;-66
2021/08/18 03:33:24;;;;;;;2.88;2.60;;;;;;;;;;5096851;28;20097;-68
2021/08/18 03:35:49;;;;;;;3.22;2.92;;;;;;;;;;5115034;28;20101;-67
2021/08/18 03:38:15;;;;;;;4.35;2.83;;;;;;;;;;5114726;28;20051;-62
2021/08/18 03:40:40;;;;;;;3.13;2.67;;;;;;;;;;5114766;28;20031;-62
2021/08/18 03:43:06;;;;;;;4.18;3.45;;;;;;;;;;5079552;28;20031;-62
2021/08/18 03:45:32;;;;;;;6.28;3.40;;;;;;;;;;5114671;28;20394;-62
2021/08/18 03:47:57;;;;;;;5.07;3.28;;;;;;;;;;5114907;28;20038;-62
2021/08/18 03:50:23;;;;;;;8.30;2.97;;;;;;;;;;5114364;28;20426;-62
2021/08/18 03:52:48;;;;;;;2.97;2.70;;;;;;;;;;5096437;28;20020;-67
2021/08/18 03:55:14;;;;;;;5.32;3.10;;;;;;;;;;5113876;28;20036;-68
2021/08/18 03:57:40;;;;;;;3.45;3.03;;;;;;;;;;5096265;28;20092;-68
2021/08/18 04:00:08;;;;;;;3.67;3.00;;;;;;;;;;5096069;28;20035;-68
2021/08/18 04:02:34;;;;;;;3.47;3.08;;;;;;;;;;5114127;28;20127;-67
2021/08/18 04:05:00;;;;;;;3.65;2.70;;;;;;;;;;5095716;28;20059;-62
2021/08/18 04:07:25;;;;;;;4.43;2.78;;;;;;;;;;5114449;28;20186;-66
2021/08/18 04:09:51;;;;;;;3.08;2.88;;;;;;;;;;5114197;28;20077;-66
2021/08/18 04:12:16;;;;;;;4.63;3.40;;;;;;;;;;5114283;28;20036;-66
2021/08/18 04:14:42;;;;;;;4.00;3.22;;;;;;;;;;5114199;28;20396;-67
2021/08/18 04:17:07;;;;;;;7.15;3.13;;;;;;;;;;5114126;28;20086;-69
2021/08/18 04:19:33;;;;;;;4.97;3.13;;;;;;;;;;5114076;28;20026;-69
2021/08/18 04:21:58;;;;;;;4.72;3.28;;;;;;;;;;5095434;28;20473;-68
2021/08/18 04:24:24;;;;;;;3.42;2.85;;;;;;;;;;5114098;28;20031;-67
2021/08/18 04:26:49;;;;;;;4.15;3.08;;;;;;;;;;5113586;28;20133;-67
2021/08/18 04:29:15;;;;;;;4.32;3.40;;;;;;;;;;5113984;28;20040;-67
2021/08/18 04:31:40;;;;;;;5.82;3.10;;;;;;;;;;5113837;28;20048;-66
2021/08/18 04:34:06;;;;;;;5.60;3.38;;;;;;;;;;5095741;28;20028;-67
2021/08/18 04:36:32;;;;;;;5.75;3.13;;;;;;;;;;5113984;28;20031;-66
2021/08/18 04:38:57;;;;;;;4.35;3.40;;;;;;;;;;5114182;28;20423;-66
2021/08/18 04:41:22;;;;;;;3.33;3.05;;;;;;;;;;5113706;28;20401;-66
2021/08/18 04:43:48;;;;;;;4.15;3.75;;;;;;;;;;5113924;28;20028;-66
2021/08/18 04:46:13;;;;;;;5.45;3.35;;;;;;;;;;5113541;28;20035;-66
2021/08/18 04:48:39;;;;;;;4.15;3.20;;;;;;;;;;5113817;28;20028;-66
2021/08/18 04:51:04;;;;;;;4.43;3.38;;;;;;;;;;5113433;28;20133;-66
2021/08/18 04:53:30;;;;;;;4.15;3.47;;;;;;;;;;5113770;28;20078;-66
2021/08/18 04:55:56;;;;;;;5.60;3.22;;;;;;;;;;5095284;28;20131;-66
2021/08/18 04:58:21;;;;;;;4.97;3.08;;;;;;;;;;5113569;28;20110;-66
2021/08/18 05:00:47;;;;;;;5.72;3.30;;;;;;;;;;5113196;28;20039;-66
2021/08/18 05:03:13;;;;;;;4.00;3.20;;;;;;;;;;5113591;28;20024;-66
2021/08/18 05:05:38;;;;;;;4.32;3.30;;;;;;;;;;5095554;28;20031;-66
2021/08/18 05:08:06;;;;;;;5.32;3.25;;;;;;;;;;5113479;28;20024;-66
2021/08/18 05:10:33;;;;;;;4.05;3.28;;;;;;;;;;5113507;28;20035;-66
2021/08/18 05:12:58;;;;;;;4.68;3.50;;;;;;;;;;5113279;28;20489;-66
2021/08/18 05:15:24;;;;;;;5.38;3.40;;;;;;;;;;5113288;28;20040;-65
2021/08/18 05:17:49;;;;;;;3.67;3.38;;;;;;;;;;5113465;28;20024;-65
2021/08/18 05:20:15;;;;;;;5.50;3.25;;;;;;;;;;5095257;28;20461;-65
2021/08/18 05:22:40;;;;;;;4.97;3.17;;;;;;;;;;5113341;28;20200;-65
2021/08/18 05:25:07;;;;;;;6.53;3.15;;;;;;;;;;5113532;28;20034;-65
2021/08/18 05:27:32;;;;;;;4.03;3.03;;;;;;;;;;5094877;28;20389;-65
2021/08/18 05:29:58;;;;;;;6.03;3.15;;;;;;;;;;5113449;28;20036;-66
2021/08/18 05:32:23;;;;;;;5.32;3.08;;;;;;;;;;5113342;28;20043;-66
2021/08/18 05:34:49;;;;;;;5.40;3.25;;;;;;;;;;5115056;28;20110;-66
2021/08/18 05:37:14;;;;;;;3.78;2.80;;;;;;;;;;5117048;28;20032;-66
2021/08/18 05:39:40;;;;;;;6.70;3.25;;;;;;;;;;5117217;28;20126;-67
2021/08/18 05:42:05;;;;;;;4.20;3.15;;;;;;;;;;5116913;28;20038;-67
2021/08/18 05:44:31;;;;;;;4.35;3.22;;;;;;;;;;5117031;28;20039;-66
2021/08/18 05:46:57;;;;;;;4.05;3.28;;;;;;;;;;5116396;28;20031;-66
2021/08/18 05:49:23;;;;;;;3.20;2.90;;;;;;;;;;5116987;28;20046;-66
2021/08/18 05:51:49;;;;;;;4.85;2.97;;;;;;;;;;5116786;28;20039;-66
2021/08/18 05:54:16;;;;;;;3.35;2.83;;;;;;;;;;5116758;28;20140;-66
2021/08/18 05:56:41;;;;;;;4.00;3.25;;;;;;;;;;5116511;28;20114;-66
2021/08/18 05:59:08;;;;;;;4.55;3.22;;;;;;;;;;5116958;28;20108;-66
2021/08/18 06:01:33;;;;;;;5.88;3.40;;;;;;;;;;5116710;28;20039;-66
2021/08/18 06:03:59;;;;;;;4.13;3.15;;;;;;;;;;5098450;28;20035;-65
2021/08/18 06:06:24;;;;;;;3.75;3.40;;;;;;;;;;5116679;28;20092;-65
2021/08/18 06:08:50;;;;;;;3.55;3.25;;;;;;;;;;5116615;28;20080;-65
2021/08/18 06:11:15;;;;;;;3.17;2.88;;;;;;;;;;5116390;28;20039;-67
2021/08/18 06:13:41;;;;;;;5.53;3.67;;;;;;;;;;5116372;28;20036;-65
2021/08/18 06:16:07;;;;;;;5.30;3.40;;;;;;;;;;5116485;28;20044;-65
2021/08/18 06:18:33;;;;;;;4.50;3.38;;;;;;;;;;5098330;28;20032;-67
2021/08/18 06:20:58;;;;;;;4.30;3.65;;;;;;;;;;5116248;28;20039;-66
2021/08/18 06:23:26;;;;;;;4.07;3.67;;;;;;;;;;5116201;28;20023;-66
2021/08/18 06:25:53;;;;;;;5.63;3.70;;;;;;;;;;5098077;28;20044;-65
2021/08/18 06:28:19;;;;;;;6.05;3.65;;;;;;;;;;5116453;28;20043;-66
2021/08/18 06:30:44;;;;;;;3.50;3.20;;;;;;;;;;5116425;28;20027;-66
2021/08/18 06:33:10;;;;;;;5.15;3.63;;;;;;;;;;5115984;28;20024;-66
2021/08/18 06:35:35;;;;;;;3.78;3.20;;;;;;;;;;5115947;28;20044;-66
2021/08/18 06:38:00;;;;;;;4.95;3.40;;;;;;;;;;5116077;28;20036;-66
2021/08/18 06:40:26;;;;;;;5.22;3.25;;;;;;;;;;5097362;28;20051;-67
2021/08/18 06:42:52;;;;;;;5.32;3.53;;;;;;;;;;5109853;28;20036;-67
2021/08/18 06:45:17;;;;;;;5.30;3.40;;;;;;;;;;5107730;28;20114;-67
2021/08/18 06:47:43;;;;;;;5.25;3.38;;;;;;;;;;5097394;28;20020;-67
2021/08/18 06:50:09;;;;;;;5.60;3.30;;;;;;;;;;5115606;28;20398;-67
2021/08/18 06:52:35;;;;;;;5.93;3.65;;;;;;;;;;5115793;28;20489;-66
2021/08/18 06:55:00;;;;;;;3.83;3.53;;;;;;;;;;5115630;28;20081;-62
2021/08/18 06:57:26;;;;;;;5.03;3.85;;;;;;;;;;5115570;28;20423;-61
2021/08/18 06:59:51;;;;;;;5.10;4.00;;;;;;;;;;5115259;28;20043;-62
2021/08/18 07:02:17;;;;;;;4.45;3.78;;;;;;;;;;5115225;28;20028;-61
2021/08/18 07:04:42;;;;;;;4.82;4.03;;;;;;;;;;5115334;28;20031;-62
2021/08/18 07:07:08;;;;;;;6.25;3.65;;;;;;;;;;5115316;28;20023;-62
2021/08/18 07:09:34;;;;;;;6.45;3.67;;;;;;;;;;5097051;28;20040;-61
2021/08/18 07:11:59;;;;;;;7.10;4.30;;;;;;;;;;5115269;28;20035;-62
2021/08/18 07:14:25;;;;;;;7.00;3.90;;;;;;;;;;5115277;28;20177;-62
2021/08/18 07:16:50;;;;;;;6.38;3.65;;;;;;;;;;5096787;28;20394;-61
2021/08/18 07:19:16;;;;;;;10.00;4.18;;;;;;;;;;5096844;28;20047;-61
2021/08/18 07:21:41;;;;;;;7.75;3.70;;;;;;;;;;5114719;28;20035;-61
2021/08/18 07:24:06;;;;;;;4.53;3.58;;;;;;;;;;5115027;28;20036;-62
2021/08/18 07:26:32;;;;;;;3.28;2.92;;;;;;;;;;5114348;28;20032;-62
2021/08/18 07:28:58;;;;;;;5.28;3.30;;;;;;;;;;5096164;28;20110;-61
2021/08/18 07:31:24;;;;;;;4.60;4.18;;;;;;;;;;5115001;28;20118;-62
2021/08/18 07:33:50;;;;;;;8.02;4.35;;;;;;;;;;5114930;28;20051;-62
2021/08/18 07:36:16;;;;;;;4.63;3.83;;;;;;;;;;5114192;28;20265;-62
2021/08/18 07:38:41;;;;;;;4.60;3.63;;;;;;;;;;5114473;28;20051;-61
2021/08/18 07:41:06;;;;;;;5.95;4.32;;;;;;;;;;5114443;28;20044;-60
2021/08/18 07:43:33;;;;;;;7.95;4.55;;;;;;;;;;5114731;28;20048;-61
2021/08/18 07:45:59;;;;;;;6.05;4.85;;;;;;;;;;5114407;28;20100;-61
2021/08/18 07:48:25;;;;;;;7.30;3.80;;;;;;;;;;5114602;28;20054;-61
2021/08/18 07:50:51;;;;;;;4.97;3.10;;;;;;;;;;5114576;28;20032;-61
2021/08/18 07:53:16;;;;;;;8.10;4.70;;;;;;;;;;5114420;28;20027;-61
2021/08/18 07:55:41;;;;;;;5.28;3.45;;;;;;;;;;5114540;28;20469;-62
2021/08/18 07:58:07;;;;;;;7.03;4.18;;;;;;;;;;5114370;28;20059;-62
2021/08/18 08:00:37;;;;;;;6.18;4.10;;;;;;;;;;5114358;28;20096;-61
2021/08/18 08:03:03;;;;;;;;;;;;;;;;;;5114979;28;20039;-61
2021/08/18 08:05:28;;;;;;;7.53;4.30;;;;;;;;;;5114415;28;19904;-62
2021/08/18 08:07:56;;;;;;;4.45;3.15;;;;;;;;;;5114463;28;20700;-61
2021/08/18 08:10:21;;;;;;;6.47;4.05;;;;;;;;;;5114252;28;20043;-61
2021/08/18 08:12:47;;;;;;;4.45;3.63;;;;;;;;;;5096293;28;20155;-61
2021/08/18 08:15:12;;;;;;;6.38;4.40;;;;;;;;;;5113985;28;20023;-61
2021/08/18 08:17:38;;;;;;;5.78;4.30;;;;;;;;;;5113966;28;20031;-61
2021/08/18 08:20:04;;;;;;;4.75;3.38;;;;;;;;;;5114175;28;20026;-61
2021/08/18 08:22:30;;;;;;;5.10;3.15;;;;;;;;;;5113768;28;20090;-61
2021/08/18 08:24:55;;;;;;;6.60;4.80;;;;;;;;;;5113811;28;20016;-61
2021/08/18 08:27:21;;;;;;;6.82;4.13;;;;;;;;;;5113347;28;20043;-61
2021/08/18 08:29:46;;;;;;;6.95;4.65;;;;;;;;;;5113996;28;20031;-61
2021/08/18 08:32:12;;;;;;;7.57;4.65;;;;;;;;;;5095517;28;20049;-61
2021/08/18 08:34:38;;;;;;;6.32;4.35;;;;;;;;;;5113677;28;20469;-61
2021/08/18 08:37:05;;;;;;;8.90;4.80;;;;;;;;;;5113649;28;20044;-61
2021/08/18 08:39:31;;;;;;;9.38;4.95;;;;;;;;;;5095300;28;20062;-63
2021/08/18 08:41:57;;;;;;;5.85;4.47;;;;;;;;;;5113951;28;20102;-64
2021/08/18 08:44:23;;;;;;;7.80;4.57;;;;;;;;;;5113735;28;20038;-64
2021/08/18 08:46:50;;;;;;;8.27;4.75;;;;;;;;;;5113671;28;20040;-64
2021/08/18 08:49:16;;;;;;;7.53;5.50;;;;;;;;;;5113591;28;20035;-64
2021/08/18 08:51:43;;;;;;;7.57;4.53;;;;;;;;;;5114044;28;20039;-64
2021/08/18 08:54:09;;;;;;;6.30;4.57;;;;;;;;;;5114007;28;20031;-64
2021/08/18 08:56:34;;;;;;;6.38;4.47;;;;;;;;;;5113882;28;20046;-64
2021/08/18 08:59:00;;;;;;;6.85;4.38;;;;;;;;;;5095602;28;20020;-64
2021/08/18 09:01:25;;;;;;;5.75;3.67;;;;;;;;;;5113534;28;20039;-64
2021/08/18 09:03:52;;;;;;;8.13;5.47;;;;;;;;;;5113879;28;20051;-64
2021/08/18 09:06:24;;;;;;;8.30;5.20;;;;;;;;;;5113721;28;20462;-64
2021/08/18 09:08:50;;;;;;;6.57;4.38;;;;;;;;;;5113803;28;20031;-64
2021/08/18 09:11:17;;;;;;;6.13;3.97;;;;;;;;;;5117503;28;20032;-64
2021/08/18 09:13:44;;;;;;;6.10;3.95;;;;;;;;;;5117701;28;20039;-64
2021/08/18 09:16:10;;;;;;;7.32;4.55;;;;;;;;;;5117665;28;20027;-64
2021/08/18 09:18:37;;;;;;;5.30;3.42;;;;;;;;;;5117533;28;20493;-64
2021/08/18 09:21:02;;;;;;;5.57;3.70;;;;;;;;;;5099297;28;20028;-64
2021/08/18 09:23:28;;;;;;;7.88;5.03;;;;;;;;;;5117199;28;20047;-64
2021/08/18 09:25:53;;;;;;;8.13;4.53;;;;;;;;;;5098498;28;20080;-64
2021/08/18 09:28:20;;;;;;;7.47;4.22;;;;;;;;;;5117058;28;20134;-64
2021/08/18 09:30:47;;;;;;;5.25;3.72;;;;;;;;;;5117394;28;20028;-64
2021/08/18 09:33:17;;;;;;;5.45;3.60;;;;;;;;;;5117104;28;20097;-64
2021/08/18 09:35:43;;;;;;;5.72;3.97;;;;;;;;;;5117002;28;20153;-64
2021/08/18 09:38:11;;;;;;;6.55;4.75;;;;;;;;;;5098559;28;20036;-63
2021/08/18 09:40:39;;;;;;;7.60;4.88;;;;;;;;;;5116784;28;20115;-64
2021/08/18 09:43:07;;;;;;;7.32;4.70;;;;;;;;;;5098850;28;20381;-63
2021/08/18 09:45:34;;;;;;;8.60;5.20;;;;;;;;;;5117030;28;20063;-63
2021/08/18 09:48:01;;;;;;;8.10;5.25;;;;;;;;;;5116857;28;20023;-63
2021/08/18 09:50:28;;;;;;;11.52;5.65;;;;;;;;;;5116833;28;20043;-64
2021/08/18 09:53:03;;;;;;;6.80;5.53;;;;;;;;;;5116805;28;20598;-64
2021/08/18 09:55:29;;;;;;;9.85;5.38;;;;;;;;;;5116739;28;20396;-63
2021/08/18 09:57:54;;;;;;;6.30;5.30;;;;;;;;;;5116764;28;20110;-64
2021/08/18 10:00:20;;;;;;;8.27;5.68;;;;;;;;;;5098403;28;20081;-61
2021/08/18 10:02:45;;;;;;;7.70;5.25;;;;;;;;;;5116746;28;20039;-61
2021/08/18 10:05:12;;;;;;;7.00;5.22;;;;;;;;;;5116765;28;20056;-61
2021/08/18 10:07:38;;;;;;;9.77;5.50;;;;;;;;;;5116684;28;20051;-61
2021/08/18 10:10:04;;;;;;;7.38;5.20;;;;;;;;;;5116521;28;20038;-61
2021/08/18 10:12:32;;;;;;;5.15;4.65;;;;;;;;;;5116822;28;20513;-61
2021/08/18 10:15:00;;;;;;;7.72;5.40;;;;;;;;;;5116808;28;20046;-61
2021/08/18 10:17:25;;;;;;;8.32;5.15;;;;;;;;;;5116717;28;20031;-61
2021/08/18 10:19:51;;;;;;;7.22;4.78;;;;;;;;;;5097741;28;20036;-61
2021/08/18 10:22:27;;;;;;;6.18;4.78;;;;;;;;;;5115896;28;20035;-61
2021/08/18 10:24:53;;;;;;;6.10;4.22;;;;;;;;;;5098014;28;20397;-63
2021/08/18 10:27:36;;;;;;;9.52;5.03;;;;;;;;;;5115947;28;20035;-64
2021/08/18 10:30:22;;;;;;;5.22;4.43;;;;;;;;;;5097850;28;20035;-64
2021/08/18 10:32:48;;;;;;;8.52;5.47;;;;;;;;;;5116245;28;20050;-64
2021/08/18 10:35:36;;;;;;;7.20;5.35;;;;;;;;;;5116107;28;20019;-64
2021/08/18 10:38:21;;;;;;;5.70;4.38;;;;;;;;;;5102384;28;20039;-64
2021/08/18 10:40:46;;;;;;;6.00;3.92;;;;;;;;;;5115896;28;20668;-64
2021/08/18 10:43:31;;;;;;;5.93;4.63;;;;;;;;;;5115983;28;20098;-64
2021/08/18 10:45:57;;;;;;;5.07;4.53;;;;;;;;;;5115319;28;20066;-64
2021/08/18 10:48:42;;;;;;;6.93;5.05;;;;;;;;;;5115759;28;20021;-64
2021/08/18 10:51:08;;;;;;;8.85;5.13;;;;;;;;;;5080373;28;20402;-64
2021/08/18 10:53:33;;;;;;;4.20;3.35;;;;;;;;;;5115395;28;20080;-64
2021/08/18 10:55:59;;;;;;;5.57;3.40;;;;;;;;;;5115333;28;20066;-64
2021/08/18 10:58:29;;;;;;;5.15;3.22;;;;;;;;;;5115669;28;20035;-64
2021/08/18 11:00:54;;;;;;;5.13;3.92;;;;;;;;;;5115534;28;20477;-64
2021/08/18 11:03:30;;;;;;;5.22;2.85;;;;;;;;;;5115506;28;20027;-65
2021/08/18 11:05:58;;;;;;;5.57;4.55;;;;;;;;;;5115598;28;20424;-64
2021/08/18 11:08:28;;;;;;;7.90;5.32;;;;;;;;;;5115529;28;20027;-64
2021/08/18 11:10:55;;;;;;;10.30;5.73;;;;;;;;;;5115431;28;20555;-64
2021/08/18 11:13:36;;;;;;;5.15;3.65;;;;;;;;;;5097138;28;20258;-64
2021/08/18 11:16:11;;;;;;;8.48;5.35;;;;;;;;;;5114919;28;20063;-64
2021/08/18 11:18:43;;;;;;;10.15;5.80;;;;;;;;;;5115268;28;20085;-64
2021/08/18 11:21:13;;;;;;;9.20;5.70;;;;;;;;;;5114838;28;20461;-64
2021/08/18 11:23:39;;;;;;;8.45;5.97;;;;;;;;;;5114910;28;20114;-64
2021/08/18 11:26:05;;;;;;;3.72;3.35;;;;;;;;;;5114831;28;20054;-64
2021/08/18 11:28:32;;;;;;;8.55;5.90;;;;;;;;;;5114983;28;20397;-64
2021/08/18 11:31:01;;;;;;;7.22;4.00;;;;;;;;;;5114872;28;20532;-64
2021/08/18 11:33:28;;;;;;;5.43;3.00;;;;;;;;;;5114027;28;20043;-64
2021/08/18 11:35:53;;;;;;;7.80;4.88;;;;;;;;;;5114609;28;20027;-64
2021/08/18 11:38:19;;;;;;;5.75;4.43;;;;;;;;;;5114571;28;20401;-64
2021/08/18 11:40:47;;;;;;;5.80;4.20;;;;;;;;;;5114392;28;20020;-64
2021/08/18 11:43:13;;;;;;;8.07;4.68;;;;;;;;;;5114687;28;20027;-61
2021/08/18 11:45:38;;;;;;;6.40;4.53;;;;;;;;;;5114768;28;20078;-61
2021/08/18 11:48:08;;;;;;;5.28;4.20;;;;;;;;;;5114682;28;20036;-61
2021/08/18 11:50:34;;;;;;;6.70;5.20;;;;;;;;;;5096431;28;20122;-63
2021/08/18 11:53:04;;;;;;;8.65;5.53;;;;;;;;;;5114373;28;20562;-64
2021/08/18 11:55:30;;;;;;;7.63;5.22;;;;;;;;;;5114419;28;20385;-64
2021/08/18 11:57:59;;;;;;;5.65;5.05;;;;;;;;;;5096074;28;20035;-64
2021/08/18 12:00:24;;;;;;;3.53;3.00;;;;;;;;;;5114606;28;20043;-64
2021/08/18 12:02:50;;;;;;;4.85;4.10;;;;;;;;;;5114374;28;20035;-64
2021/08/18 12:05:15;;;;;;;6.03;4.20;;;;;;;;;;5114112;28;20549;-61
2021/08/18 12:07:42;;;;;;;5.13;4.38;;;;;;;;;;5114477;28;20012;-61
2021/08/18 12:10:18;;;;;;;5.07;4.53;;;;;;;;;;5114160;28;20036;-61
2021/08/18 12:12:44;;;;;;;5.25;4.70;;;;;;;;;;5114223;28;20039;-62
2021/08/18 12:15:11;;;;;;;7.60;4.75;;;;;;;;;;5114082;28;20028;-61
2021/08/18 12:17:41;;;;;;;7.13;5.03;;;;;;;;;;5113953;28;20075;-64
2021/08/18 12:20:29;;;;;;;4.87;4.37;;;;;;;;;;5114112;28;20490;-61
2021/08/18 12:22:55;;;;;;;6.20;4.05;;;;;;;;;;5113950;28;20489;-63
2021/08/18 12:25:27;;;;;;;5.63;3.75;;;;;;;;;;5113438;28;20076;-64
2021/08/18 12:28:09;;;;;;;4.95;3.80;;;;;;;;;;5113010;28;20378;-64
2021/08/18 12:30:53;;;;;;;4.63;3.65;;;;;;;;;;5114029;28;20485;-64
2021/08/18 12:33:18;;;;;;;4.63;4.10;;;;;;;;;;5113995;28;20549;-64
2021/08/18 12:35:44;;;;;;;4.35;3.92;;;;;;;;;;5095480;28;20063;-64
2021/08/18 12:38:09;;;;;;;5.55;3.75;;;;;;;;;;5113736;28;20038;-64
2021/08/18 12:40:35;;;;;;;5.60;3.85;;;;;;;;;;5113537;28;20157;-64
2021/08/18 12:43:03;;;;;;;3.95;3.53;;;;;;;;;;5114466;28;20397;-64
2021/08/18 12:45:31;;;;;;;6.18;4.03;;;;;;;;;;5102412;28;20111;-64
2021/08/18 12:47:59;;;;;;;4.88;4.13;;;;;;;;;;5120636;28;20031;-64
2021/08/18 12:50:27;;;;;;;4.13;3.78;;;;;;;;;;5120580;28;20461;-64
2021/08/18 12:52:53;;;;;;;5.10;4.32;;;;;;;;;;5120313;28;20097;-64
2021/08/18 12:55:20;;;;;;;3.90;3.40;;;;;;;;;;5120433;28;20035;-64
2021/08/18 12:57:45;;;;;;;4.25;3.88;;;;;;;;;;5120449;28;20062;-64
2021/08/18 13:00:11;;;;;;;4.00;3.15;;;;;;;;;;5120319;28;20059;-64
2021/08/18 13:02:37;;;;;;;4.07;3.67;;;;;;;;;;5120129;28;20067;-64
2021/08/18 13:05:03;;;;;;;3.60;2.80;;;;;;;;;;5101497;28;20503;-64
2021/08/18 13:07:28;;;;;;;4.05;3.65;;;;;;;;;;5120155;28;20028;-64
2021/08/18 13:09:54;;;;;;;5.03;3.80;;;;;;;;;;5120243;28;20095;-65
2021/08/18 13:12:19;;;;;;;4.65;3.10;;;;;;;;;;5120276;28;20543;-65
2021/08/18 13:14:45;;;;;;;6.00;3.55;;;;;;;;;;5120432;28;20122;-65
2021/08/18 13:17:11;;;;;;;7.07;4.00;;;;;;;;;;5120119;28;20070;-65
2021/08/18 13:19:37;;;;;;;3.72;3.15;;;;;;;;;;5120111;28;20026;-65
2021/08/18 13:22:02;;;;;;;3.92;3.53;;;;;;;;;;5120253;28;20474;-65
2021/08/18 13:24:28;;;;;;;6.20;3.80;;;;;;;;;;5120373;28;20070;-65
2021/08/18 13:26:56;;;;;;;4.25;3.40;;;;;;;;;;5119815;28;20040;-64
2021/08/18 13:29:22;;;;;;;4.20;3.35;;;;;;;;;;5120158;28;20028;-64
2021/08/18 13:31:48;;;;;;;3.38;2.97;;;;;;;;;;5120184;28;20576;-64
2021/08/18 13:34:14;;;;;;;3.00;2.70;;;;;;;;;;5101866;28;20065;-64
2021/08/18 13:36:40;;;;;;;4.38;3.60;;;;;;;;;;5120070;28;20034;-64
2021/08/18 13:39:05;;;;;;;3.33;2.72;;;;;;;;;;5120028;28;20396;-64
2021/08/18 13:41:31;;;;;;;3.30;2.90;;;;;;;;;;5119848;28;20031;-64
2021/08/18 13:43:58;;;;;;;5.50;2.97;;;;;;;;;;5119720;28;20032;-61
2021/08/18 13:46:24;;;;;;;3.63;2.88;;;;;;;;;;5119978;28;20102;-61
2021/08/18 13:48:51;;;;;;;5.60;3.42;;;;;;;;;;5119897;28;20446;-61
2021/08/18 13:51:16;;;;;;;3.97;3.30;;;;;;;;;;5101647;28;20043;-61
2021/08/18 13:53:42;;;;;;;3.65;3.00;;;;;;;;;;5119894;28;20080;-61
2021/08/18 13:56:07;;;;;;;3.33;3.03;;;;;;;;;;5116491;28;20477;-61
2021/08/18 13:58:33;;;;;;;3.47;3.00;;;;;;;;;;5116727;28;20050;-61
2021/08/18 14:00:59;;;;;;;4.97;3.20;;;;;;;;;;5116310;28;20031;-61
2021/08/18 14:03:25;;;;;;;3.25;2.75;;;;;;;;;;5116682;28;20046;-61
2021/08/18 14:05:51;;;;;;;4.07;2.83;;;;;;;;;;5116617;28;20028;-61
2021/08/18 14:08:17;;;;;;;3.25;2.88;;;;;;;;;;5116545;28;20217;-61
2021/08/18 14:10:43;;;;;;;4.32;2.95;;;;;;;;;;5116419;28;20062;-61
2021/08/18 14:13:09;;;;;;;3.40;2.80;;;;;;;;;;5116227;28;20039;-61
2021/08/18 14:15:35;;;;;;;3.30;2.78;;;;;;;;;;5116294;28;20027;-61
2021/08/18 14:18:02;;;;;;;2.67;2.45;;;;;;;;;;5116397;28;20028;-61
2021/08/18 14:20:27;;;;;;;3.10;2.90;;;;;;;;;;5116423;28;20039;-61
2021/08/18 14:22:53;;;;;;;3.30;3.00;;;;;;;;;;5116104;28;20040;-61
2021/08/18 14:25:19;;;;;;;4.05;2.70;;;;;;;;;;5116250;28;20099;-61
2021/08/18 14:27:45;;;;;;;3.03;2.72;;;;;;;;;;5115847;28;20071;-61
2021/08/18 14:30:11;;;;;;;3.00;2.80;;;;;;;;;;5116161;28;20035;-61
2021/08/18 14:32:37;;;;;;;3.08;2.78;;;;;;;;;;5097748;28;20073;-61
2021/08/18 14:35:02;;;;;;;3.25;2.58;;;;;;;;;;5115740;28;20035;-61
2021/08/18 14:37:28;;;;;;;3.00;2.65;;;;;;;;;;5115872;28;20369;-61
2021/08/18 14:39:54;;;;;;;2.70;2.50;;;;;;;;;;5115687;28;20038;-61